createdAt,value
2023-06-19T00:00:49.856Z,6.42
2023-06-19T00:03:55.741Z,6.35
2023-06-19T00:07:02.726Z,5.80
2023-06-19T00:13:23.152Z,6.15
2023-06-19T00:16:28.699Z,5.58
2023-06-19T00:19:33.921Z,6.05
2023-06-19T00:22:40.253Z,6.08
2023-06-19T00:25:45.940Z,5.95
2023-06-19T00:28:53.402Z,5.97
2023-06-19T00:32:02.140Z,5.77
2023-06-19T00:35:09.358Z,5.67
2023-06-19T00:38:16.071Z,5.40
2023-06-19T00:41:20.854Z,5.55
2023-06-19T00:44:19.248Z,5.60
2023-06-19T00:47:16.030Z,5.87
2023-06-19T00:50:22.777Z,5.20
2023-06-19T00:53:27.461Z,5.80
2023-06-19T00:56:32.531Z,4.55
2023-06-19T00:59:38.643Z,5.10
2023-06-19T01:02:43.989Z,5.17
2023-06-19T01:05:50.146Z,5.20
2023-06-19T01:09:02.837Z,5.15
2023-06-19T01:12:13.751Z,5.67
2023-06-19T01:15:20.166Z,5.28
2023-06-19T01:18:24.908Z,4.90
2023-06-19T01:21:33.067Z,5.20
2023-06-19T01:24:39.242Z,4.40
2023-06-19T01:27:43.590Z,4.47
2023-06-19T01:30:49.942Z,4.83
2023-06-19T01:33:56.571Z,4.45
2023-06-19T01:37:04.470Z,4.60
2023-06-19T01:40:12.209Z,4.40
2023-06-19T01:43:18.246Z,4.65
2023-06-19T01:46:23.117Z,4.08
2023-06-19T01:49:28.747Z,4.37
2023-06-19T01:52:35.892Z,4.30
2023-06-19T01:55:41.420Z,4.85
2023-06-19T01:58:46.566Z,4.65
2023-06-19T02:01:53.463Z,4.22
2023-06-19T02:05:02.135Z,4.72
2023-06-19T02:08:08.449Z,4.50
2023-06-19T02:11:14.434Z,5.03
2023-06-19T02:14:20.672Z,4.40
2023-06-19T02:17:27.121Z,4.12
2023-06-19T02:20:35.216Z,3.92
2023-06-19T02:23:41.394Z,3.80
2023-06-19T02:26:47.189Z,4.15
2023-06-19T02:29:52.528Z,4.17
2023-06-19T02:32:58.532Z,3.98
2023-06-19T02:36:06.028Z,4.40
2023-06-19T02:39:12.538Z,3.60
2023-06-19T02:42:18.265Z,3.85
2023-06-19T02:45:24.360Z,4.55
2023-06-19T02:48:30.805Z,3.50
2023-06-19T02:51:37.906Z,3.80
2023-06-19T02:54:44.514Z,4.20
2023-06-19T02:57:50.017Z,3.67
2023-06-19T03:00:55.454Z,4.17
2023-06-19T03:04:02.256Z,3.95
2023-06-19T03:07:11.158Z,3.83
2023-06-19T03:10:19.859Z,3.22
2023-06-19T03:13:24.565Z,3.67
2023-06-19T03:16:30.853Z,3.35
2023-06-19T03:19:37.001Z,3.47
2023-06-19T03:22:44.417Z,3.85
2023-06-19T03:25:50.333Z,3.80
2023-06-19T03:28:57.091Z,3.62
2023-06-19T03:32:05.527Z,3.30
2023-06-19T03:35:06.482Z,3.95
2023-06-19T03:38:00.052Z,3.47
2023-06-19T03:41:05.938Z,3.60
2023-06-19T03:44:12.500Z,3.60
2023-06-19T03:47:19.099Z,3.75
2023-06-19T03:50:27.204Z,2.98
2023-06-19T03:53:31.817Z,3.50
2023-06-19T03:56:37.581Z,3.58
2023-06-19T03:59:43.499Z,3.42
2023-06-19T04:02:50.625Z,3.05
2023-06-19T04:05:56.396Z,2.98
2023-06-19T04:09:01.930Z,3.75
2023-06-19T04:12:09.316Z,3.37
2023-06-19T04:15:15.437Z,3.50
2023-06-19T04:18:21.792Z,2.65
2023-06-19T04:21:29.957Z,3.05
2023-06-19T04:24:37.318Z,3.50
2023-06-19T04:27:43.214Z,3.42
2023-06-19T04:30:49.308Z,2.90
2023-06-19T04:33:54.290Z,3.40
2023-06-19T04:37:00.445Z,3.37
2023-06-19T04:40:06.712Z,3.27
2023-06-19T04:43:04.800Z,3.72
2023-06-19T04:46:12.504Z,3.25
2023-06-19T04:49:17.720Z,2.92
2023-06-19T04:52:23.206Z,3.70
2023-06-19T04:55:29.959Z,2.95
2023-06-19T04:58:35.985Z,3.12
2023-06-19T05:01:42.213Z,3.05
2023-06-19T05:04:50.059Z,3.25
2023-06-19T05:07:55.825Z,3.05
2023-06-19T05:11:02.981Z,2.85
2023-06-19T05:14:09.055Z,3.50
2023-06-19T05:17:14.268Z,3.40
2023-06-19T05:20:21.345Z,2.40
2023-06-19T05:23:27.632Z,2.70
2023-06-19T05:26:34.104Z,2.65
2023-06-19T05:29:39.719Z,3.05
2023-06-19T05:32:46.769Z,3.12
2023-06-19T05:35:54.385Z,3.15
2023-06-19T05:39:00.975Z,2.80
2023-06-19T05:42:07.356Z,3.47
2023-06-19T05:45:13.689Z,3.17
2023-06-19T05:48:19.321Z,3.00
2023-06-19T05:51:25.088Z,2.77
2023-06-19T05:54:31.502Z,3.15
2023-06-19T05:57:38.400Z,2.85
2023-06-19T06:00:44.812Z,2.87
2023-06-19T06:03:43.895Z,3.12
2023-06-19T06:06:29.470Z,2.80
2023-06-19T06:09:23.943Z,2.95
2023-06-19T06:12:23.856Z,2.83
2023-06-19T06:15:29.618Z,2.67
2023-06-19T06:18:35.984Z,2.90
2023-06-19T06:21:42.589Z,3.08
2023-06-19T06:24:47.925Z,2.30
2023-06-19T06:27:53.808Z,3.08
2023-06-19T06:31:03.390Z,3.00
2023-06-19T06:34:09.138Z,2.50
2023-06-19T06:37:15.285Z,2.95
2023-06-19T06:40:23.282Z,2.77
2023-06-19T06:43:29.264Z,2.92
2023-06-19T06:46:36.885Z,2.47
2023-06-19T06:49:41.797Z,2.60
2023-06-19T06:52:49.531Z,2.62
2023-06-19T06:55:55.341Z,3.02
2023-06-19T06:59:01.975Z,3.45
2023-06-19T07:02:08.314Z,2.25
2023-06-19T07:05:13.821Z,3.10
2023-06-19T07:08:19.302Z,2.62
2023-06-19T07:11:25.178Z,2.65
2023-06-19T07:14:31.154Z,2.40
2023-06-19T07:17:36.136Z,2.45
2023-06-19T07:20:41.530Z,2.60
2023-06-19T07:23:47.542Z,2.83
2023-06-19T07:26:52.390Z,2.52
2023-06-19T07:29:59.832Z,2.72
2023-06-19T07:33:06.454Z,2.25
2023-06-19T07:36:12.731Z,2.42
2023-06-19T07:39:18.620Z,2.47
2023-06-19T07:42:25.036Z,1.95
2023-06-19T07:45:30.985Z,2.33
2023-06-19T07:48:37.046Z,2.00
2023-06-19T07:51:43.247Z,1.87
2023-06-19T07:55:03.931Z,2.20
2023-06-19T07:58:09.603Z,2.15
2023-06-19T08:01:14.561Z,1.90
2023-06-19T08:04:21.796Z,2.42
2023-06-19T08:07:28.121Z,2.17
2023-06-19T08:10:46.802Z,2.77
2023-06-19T08:13:51.788Z,2.08
2023-06-19T08:16:57.769Z,3.45
2023-06-19T08:20:02.863Z,2.60
2023-06-19T08:23:09.163Z,2.85
2023-06-19T08:26:16.268Z,2.52
2023-06-19T08:29:21.169Z,2.70
2023-06-19T08:32:26.276Z,2.90
2023-06-19T08:35:31.566Z,2.25
2023-06-19T08:38:35.925Z,2.33
2023-06-19T08:41:42.470Z,2.67
2023-06-19T08:44:48.689Z,2.87
2023-06-19T08:47:53.981Z,2.60
2023-06-19T08:51:01.481Z,3.67
2023-06-19T08:54:14.488Z,3.02
2023-06-19T08:57:21.778Z,2.87
2023-06-19T09:00:30.375Z,2.72
2023-06-19T09:03:39.513Z,2.35
2023-06-19T09:06:46.241Z,2.83
2023-06-19T09:09:51.994Z,2.72
2023-06-19T09:13:12.377Z,2.25
2023-06-19T09:16:23.178Z,2.40
2023-06-19T09:19:30.288Z,2.42
2023-06-19T09:22:38.092Z,2.42
2023-06-19T09:25:35.830Z,2.90
2023-06-19T09:28:39.256Z,2.42
2023-06-19T09:31:43.839Z,2.50
2023-06-19T09:34:48.961Z,2.15
2023-06-19T09:37:55.915Z,2.50
2023-06-19T09:41:03.600Z,2.35
2023-06-19T09:44:08.049Z,2.37
2023-06-19T09:47:01.521Z,2.60
2023-06-19T09:50:11.089Z,1.90
2023-06-19T09:53:18.562Z,1.70
2023-06-19T09:56:23.828Z,2.65
2023-06-19T09:59:29.942Z,2.30
2023-06-19T10:02:36.644Z,2.17
2023-06-19T10:05:48.586Z,3.05
2023-06-19T10:08:58.966Z,2.47
2023-06-19T10:12:06.777Z,2.92
2023-06-19T10:15:13.369Z,2.80
2023-06-19T10:18:19.769Z,2.65
2023-06-19T10:21:34.804Z,2.60
2023-06-19T10:24:42.213Z,2.62
2023-06-19T10:27:55.181Z,2.60
2023-06-19T10:31:03.321Z,3.47
2023-06-19T10:34:09.849Z,2.77
2023-06-19T10:37:16.217Z,2.80
2023-06-19T10:40:23.527Z,3.02
2023-06-19T10:43:36.899Z,3.45
2023-06-19T10:46:50.324Z,3.90
2023-06-19T10:49:55.559Z,2.67
2023-06-19T10:53:02.253Z,2.77
2023-06-19T10:56:12.706Z,2.50
2023-06-19T10:59:22.654Z,3.55
2023-06-19T11:02:28.137Z,2.85
2023-06-19T11:05:36.063Z,3.40
2023-06-19T11:08:35.832Z,2.90
2023-06-19T11:11:35.195Z,3.12
2023-06-19T11:14:46.911Z,3.17
2023-06-19T11:17:52.778Z,3.02
2023-06-19T11:21:07.108Z,2.80
2023-06-19T11:24:16.826Z,2.95
2023-06-19T11:27:24.329Z,3.05
2023-06-19T11:30:29.733Z,2.90
2023-06-19T11:33:37.713Z,3.10
2023-06-19T11:36:44.087Z,3.22
2023-06-19T11:39:49.693Z,2.70
2023-06-19T11:43:08.714Z,2.80
2023-06-19T11:46:24.014Z,3.02
2023-06-19T11:49:32.924Z,3.20
2023-06-19T11:52:38.077Z,3.02
2023-06-19T11:55:44.333Z,3.17
2023-06-19T11:58:52.322Z,3.30
2023-06-19T12:01:58.613Z,3.40
2023-06-19T12:05:05.221Z,3.20
2023-06-19T12:08:12.421Z,3.67
2023-06-19T12:11:18.398Z,3.10
2023-06-19T12:14:24.573Z,3.70
2023-06-19T12:17:30.168Z,3.62
2023-06-19T12:20:36.146Z,3.47
2023-06-19T12:23:41.697Z,3.67
2023-06-19T12:26:49.198Z,3.10
2023-06-19T12:29:54.239Z,3.15
2023-06-19T12:33:00.201Z,3.22
2023-06-19T12:36:05.733Z,3.37
2023-06-19T12:39:14.402Z,2.95
2023-06-19T12:42:20.864Z,3.05
2023-06-19T12:45:26.184Z,3.37
2023-06-19T12:48:31.318Z,3.52
2023-06-19T12:51:38.691Z,3.85
2023-06-19T12:54:45.291Z,3.60
2023-06-19T12:57:52.713Z,3.55
2023-06-19T13:00:59.091Z,3.30
2023-06-19T13:04:06.380Z,3.40
2023-06-19T13:07:11.920Z,3.62
2023-06-19T13:10:26.471Z,3.70
2023-06-19T13:13:32.835Z,3.72
2023-06-19T13:19:46.604Z,4.55
2023-06-19T13:22:53.320Z,3.27
2023-06-19T13:25:59.205Z,3.25
2023-06-19T13:29:06.764Z,4.05
2023-06-19T13:32:12.490Z,3.62
2023-06-19T13:35:18.430Z,3.60
2023-06-19T13:38:24.101Z,3.58
2023-06-19T13:41:31.572Z,4.00
2023-06-19T13:44:36.814Z,3.70
2023-06-19T13:47:42.546Z,4.35
2023-06-19T13:50:48.052Z,3.50
2023-06-19T13:53:54.510Z,4.15
2023-06-19T13:57:00.070Z,3.60
2023-06-19T14:00:06.301Z,4.08
2023-06-19T14:03:15.221Z,3.92
2023-06-19T14:06:22.500Z,4.15
2023-06-19T14:09:32.078Z,3.80
2023-06-19T14:12:30.207Z,3.90
2023-06-19T14:15:37.466Z,3.50
2023-06-19T14:18:45.137Z,3.80
2023-06-19T14:21:50.160Z,3.65
2023-06-19T14:24:56.189Z,3.65
2023-06-19T14:28:03.289Z,3.20
2023-06-19T14:31:09.445Z,3.85
2023-06-19T14:34:14.753Z,3.75
2023-06-19T14:37:21.434Z,4.50
2023-06-19T14:40:27.212Z,4.40
2023-06-19T14:43:26.598Z,4.03
2023-06-19T14:46:38.511Z,4.40
2023-06-19T14:49:39.498Z,4.45
2023-06-19T14:52:45.996Z,3.75
2023-06-19T14:55:53.246Z,4.67
2023-06-19T14:58:59.329Z,3.85
2023-06-19T15:01:59.406Z,4.47
2023-06-19T15:05:07.213Z,3.67
2023-06-19T15:08:13.830Z,3.70
2023-06-19T15:11:20.694Z,3.33
2023-06-19T15:14:26.624Z,3.60
2023-06-19T15:17:32.264Z,3.98
2023-06-19T15:20:38.964Z,4.22
2023-06-19T15:23:45.419Z,4.05
2023-06-19T15:26:53.434Z,4.10
2023-06-19T15:29:58.713Z,3.62
2023-06-19T15:33:06.215Z,4.70
2023-06-19T15:36:11.898Z,3.87
2023-06-19T15:39:18.065Z,3.70
2023-06-19T15:42:23.579Z,3.30
2023-06-19T15:45:28.935Z,2.98
2023-06-19T15:48:36.714Z,3.92
2023-06-19T15:51:43.127Z,3.37
2023-06-19T15:54:48.595Z,3.22
2023-06-19T15:57:55.054Z,3.10
2023-06-19T16:01:01.308Z,3.30
2023-06-19T16:04:06.877Z,2.85
2023-06-19T16:07:12.155Z,3.08
2023-06-19T16:10:25.549Z,3.20
2023-06-19T16:13:31.052Z,2.80
2023-06-19T16:16:38.367Z,2.72
2023-06-19T16:19:44.727Z,3.42
2023-06-19T16:22:43.948Z,2.95
2023-06-19T16:25:50.024Z,3.40
2023-06-19T16:28:54.811Z,3.30
2023-06-19T16:32:09.716Z,3.20
2023-06-19T16:35:09.095Z,2.52
2023-06-19T16:38:15.665Z,2.90
2023-06-19T16:41:21.427Z,2.85
2023-06-19T16:44:27.179Z,2.80
2023-06-19T16:47:35.016Z,2.42
2023-06-19T16:50:43.885Z,2.45
2023-06-19T16:53:51.358Z,2.60
2023-06-19T16:56:55.713Z,2.35
2023-06-19T17:00:01.274Z,2.35
2023-06-19T17:03:09.017Z,2.37
2023-06-19T17:06:08.806Z,2.30
2023-06-19T17:09:14.228Z,2.55
2023-06-19T17:12:19.989Z,2.25
2023-06-19T17:15:25.542Z,2.20
2023-06-19T17:18:31.511Z,2.70
2023-06-19T17:21:37.276Z,2.10
2023-06-19T17:24:44.039Z,2.30
2023-06-19T17:27:49.380Z,2.35
2023-06-19T17:30:56.092Z,2.58
2023-06-19T17:34:02.449Z,2.60
2023-06-19T17:37:09.868Z,2.27
2023-06-19T17:40:17.145Z,2.75
2023-06-19T17:43:15.263Z,2.45
2023-06-19T17:46:09.348Z,2.05
2023-06-19T17:49:15.954Z,2.25
2023-06-19T17:52:21.963Z,2.15
2023-06-19T17:55:26.724Z,1.95
2023-06-19T17:58:34.399Z,1.98
2023-06-19T18:01:39.685Z,2.25
2023-06-19T18:04:46.267Z,2.22
2023-06-19T18:07:52.045Z,2.65
2023-06-19T18:10:57.638Z,2.17
2023-06-19T18:14:03.334Z,2.08
2023-06-19T18:17:10.442Z,1.98
2023-06-19T18:20:16.108Z,2.60
2023-06-19T18:23:21.372Z,2.47
2023-06-19T18:26:26.548Z,2.02
2023-06-19T18:29:33.184Z,2.12
2023-06-19T18:32:38.771Z,2.55
2023-06-19T18:35:44.539Z,2.42
2023-06-19T18:38:50.074Z,2.33
2023-06-19T18:41:55.802Z,2.00
2023-06-19T18:45:01.649Z,1.87
2023-06-19T18:48:07.718Z,2.70
2023-06-19T18:51:13.107Z,2.20
2023-06-19T18:54:19.027Z,2.25
2023-06-19T18:57:24.766Z,3.20
2023-06-19T19:00:34.176Z,2.10
2023-06-19T19:03:40.366Z,2.63
2023-06-19T19:06:46.923Z,2.10
2023-06-19T19:09:53.290Z,1.82
2023-06-19T19:13:00.395Z,2.37
2023-06-19T19:16:06.221Z,2.60
2023-06-19T19:19:12.914Z,2.30
2023-06-19T19:22:17.696Z,2.30
2023-06-19T19:25:22.738Z,2.20
2023-06-19T19:28:30.444Z,2.15
2023-06-19T19:31:36.708Z,2.22
2023-06-19T19:34:41.616Z,1.90
2023-06-19T19:37:47.458Z,2.15
2023-06-19T19:40:53.686Z,2.37
2023-06-19T19:43:59.375Z,1.70
2023-06-19T19:47:05.290Z,2.37
2023-06-19T19:50:13.838Z,1.90
2023-06-19T19:53:19.881Z,1.92
2023-06-19T19:56:26.264Z,1.95
2023-06-19T19:59:32.042Z,2.15
2023-06-19T20:02:37.702Z,1.70
2023-06-19T20:05:43.265Z,2.20
2023-06-19T20:08:51.713Z,1.85
2023-06-19T20:12:12.175Z,2.05
2023-06-19T20:15:05.775Z,2.20
2023-06-19T20:18:10.607Z,1.85
2023-06-19T20:21:15.400Z,1.90
2023-06-19T20:24:20.392Z,1.87
2023-06-19T20:27:26.968Z,2.37
2023-06-19T20:30:25.436Z,1.65
2023-06-19T20:33:23.996Z,2.00
2023-06-19T20:36:29.902Z,2.05
2023-06-19T20:39:34.730Z,2.65
2023-06-19T20:42:40.605Z,2.45
2023-06-19T20:45:48.497Z,2.22
2023-06-19T20:48:55.800Z,2.80
2023-06-19T20:52:02.404Z,2.42
2023-06-19T20:55:07.637Z,2.58
2023-06-19T20:58:13.541Z,2.47
2023-06-19T21:01:20.572Z,2.62
2023-06-19T21:04:26.422Z,2.50
2023-06-19T21:07:32.978Z,2.65
2023-06-19T21:10:38.572Z,2.42
2023-06-19T21:13:45.412Z,2.40
2023-06-19T21:16:51.358Z,2.40
2023-06-19T21:19:57.491Z,2.60
2023-06-19T21:23:06.276Z,3.00
2023-06-19T21:26:11.858Z,2.80
2023-06-19T21:29:18.039Z,2.80
2023-06-19T21:32:24.421Z,3.33
2023-06-19T21:35:30.142Z,3.10
2023-06-19T21:38:39.061Z,2.80
2023-06-19T21:41:45.400Z,3.08
2023-06-19T21:44:51.587Z,3.00
2023-06-19T21:47:58.252Z,3.35
2023-06-19T21:51:03.344Z,2.85
2023-06-19T21:54:09.314Z,3.37
2023-06-19T21:57:15.133Z,3.50
2023-06-19T22:00:22.691Z,3.35
2023-06-19T22:03:28.662Z,3.80
2023-06-19T22:06:33.926Z,3.05
2023-06-19T22:09:38.703Z,3.45
2023-06-19T22:12:45.266Z,3.52
2023-06-19T22:15:51.066Z,3.00
2023-06-19T22:18:56.791Z,4.10
2023-06-19T22:22:01.741Z,3.83
2023-06-19T22:25:06.863Z,3.77
2023-06-19T22:28:13.560Z,3.50
2023-06-19T22:31:19.224Z,3.65
2023-06-19T22:34:24.419Z,4.05
2023-06-19T22:37:30.284Z,3.80
2023-06-19T22:40:35.641Z,4.00
2023-06-19T22:43:41.679Z,3.95
2023-06-19T22:46:48.251Z,3.77
2023-06-19T22:49:54.132Z,3.90
2023-06-19T22:53:00.051Z,3.95
2023-06-19T22:56:05.048Z,3.77
2023-06-19T22:59:10.863Z,4.15
2023-06-19T23:02:16.732Z,3.95
2023-06-19T23:05:24.537Z,4.15
2023-06-19T23:08:30.883Z,4.03
2023-06-19T23:11:37.815Z,3.92
2023-06-19T23:14:44.818Z,4.70
2023-06-19T23:17:51.388Z,3.85
2023-06-19T23:20:56.984Z,4.30
2023-06-19T23:24:03.866Z,4.15
2023-06-19T23:27:10.494Z,5.30
2023-06-19T23:30:10.516Z,4.22
2023-06-19T23:33:17.478Z,4.60
2023-06-19T23:36:22.513Z,4.47
2023-06-19T23:39:27.536Z,4.60
2023-06-19T23:42:32.480Z,4.50
2023-06-19T23:45:40.059Z,4.65
2023-06-19T23:48:46.103Z,4.90
2023-06-19T23:51:53.327Z,5.30
2023-06-19T23:55:00.396Z,4.95
2023-06-19T23:58:06.941Z,5.30
